首页
METAR-TAF:

METAR-TAF

机场 :

兰州中川国际机场

兰州, 中华人民共和国

纬度: 36-02N, 经度: 103-52E, 海拔: 1518米

当前天气观测

该预报发布于57分钟前的07:00 UTC
风速4节,风向多变
温度 18°C
湿度 28%
气压 1023 hPa
能见度10公里或以上
少量云层高于2300英尺

METAR: ZLLL 220700Z VRB02MPS 9999 FEW023 18/M01 Q1023 NOSIG

时间: 15:57 (07:57 UTC)

预报

该预报发布于4小时和56分钟前的03:01 UTC
预报有效从22日的 06点(UTC)到 23日的 06点(UTC)
风速6节,风向南转西南
能见度10公里或以上
1500米以下无云,无积雨云
短暂存在
从 22日的 06点(UTC)到 22日的 12点(UTC)
散云层高于2300英尺
少量云层高于3300英尺, 积雨云.

TAF: ZLLL 220301Z 2206/2306 21003MPS CAVOK TX20/2209Z TN07/2223Z TEMPO 2206/2212 SCT023 FEW033CB

超过4000个机场的气象观测和天气预报(METAR&TAF报告)。

可查询的气象台以黄色和红色小点在地图上表示。

将鼠标移到小点上方,可查看气象台名称。

然后点击查看天气观测和预报。

如需切换地图:点击带黑十字的绿色按钮放大地图;点击带横线的绿色按钮缩小地图;或者点击绿色箭头查看邻近地区的地图。


METAR-TAF: